Latest Weather Observations for High Range (Wanganderry)

IDN60801

Issued at 2:33 pm EST Saturday 27 August 2016 (issued every 30 minutes, with the page automatically refreshed every 10 minutes)

About weather observations | Map of weather stations | Latest weather observations for NSW | Other Formats
Station Details ID: 068262 Name: HIGH RANGE AWS (WANGANDERRY) Lat: -34.33 Lon: 150.27 Height: 813.6 m
Data from the previous 72 hours. | See also: Recent months for locations in New South Wales
Date/Time
EST
Temp
°C
App
Temp
°C
Dew
Point
°C
Rel
Hum
%
Delta-T
°C
Wind Press
QNH
hPa
Press
MSL
hPa
Rain since
9am
mm
Dir  Spd
km/h
Gust
km/h
Spd
kts
Gust
kts
27/02:30pm 11.8 6.0 -1.3 40 5.5 W 19 24 10 13 1020.3 1020.6 0.0
27/02:00pm 11.7 6.3 -1.4 40 5.4 WNW 17 22 9 12 1020.5 1020.8 0.0
27/01:30pm 11.1 6.0 -2.3 39 5.4 WNW 15 20 8 11 1020.7 1021.0 0.0
27/01:00pm 10.9 6.9 -2.1 40 5.3 WNW 9 17 5 9 1020.8 1021.1 0.0
27/12:30pm 10.2 6.4 -0.6 47 4.5 WNW 9 17 5 9 1021.3 1021.6 0.0
27/12:00pm 9.8 5.5 0.9 54 3.8 WNW 13 22 7 12 1021.8 1022.1 0.0
27/11:30am 8.8 4.4 0.5 56 3.5 WNW 13 19 7 10 1022.3 1022.6 0.0
27/11:00am 8.3 4.3 0.8 59 3.2 W 11 15 6 8 1022.6 1022.9 0.0
27/10:30am 7.5 3.9 0.7 62 2.9 WNW 9 15 5 8 1022.7 1023.0 0.0
27/10:00am 6.9 3.4 1.4 68 2.3 WSW 9 13 5 7 1022.8 1023.1 0.0
27/09:30am 6.0 1.2 0.1 66 2.4 W 15 17 8 9 1022.6 1022.9 0.0
27/09:00am 5.4 1.4 0.4 70 2.0 W 11 15 6 8 1022.5 1022.8 0.0
27/08:30am 4.6 -0.6 -0.2 71 1.9 W 17 20 9 11 1022.0 1022.3 0.0
27/08:00am 3.8 -2.8 -0.4 74 1.6 WSW 24 28 13 15 1021.7 1022.0 0.0
27/07:30am 2.6 -3.2 -0.3 81 1.1 W 20 24 11 13 1021.6 1021.9 0.0
27/07:00am 1.8 -4.8 -0.6 84 0.9 W 24 28 13 15 1021.4 1021.7 0.0
27/06:30am 1.6 -5.8 -0.6 85 0.8 W 28 33 15 18 1021.2 1021.5 0.0
27/06:00am 2.0 -6.1 -0.4 84 0.9 WSW 32 35 17 19 1021.2 1021.5 0.0
27/05:30am 2.2 -5.6 -0.5 82 1.0 WSW 30 35 16 19 1021.2 1021.5 0.0
27/05:00am 1.8 -5.5 -0.3 86 0.8 WSW 28 32 15 17 1020.7 1021.0 0.0
27/04:30am 1.9 -5.1 -0.2 86 0.8 W 26 32 14 17 1020.6 1020.9 0.0
27/04:00am 1.7 -4.9 -0.4 86 0.8 W 24 30 13 16 1020.5 1020.8 0.0
27/03:30am 2.1 -4.5 -0.2 85 0.9 W 24 28 13 15 1020.5 1020.8 0.0
27/03:00am 2.0 -4.9 -0.1 86 0.8 W 26 28 14 15 1020.6 1020.9 0.0
27/02:30am 2.2 -4.3 0.1 86 0.8 W 24 26 13 14 1020.7 1021.0 0.0
27/02:00am 2.4 -4.1 0.0 84 0.9 W 24 26 13 14 1021.0 1021.2 0.0
27/01:30am 2.4 -4.2 -0.2 83 1.0 W 24 28 13 15 1021.1 1021.4 0.0
27/01:00am 2.8 -3.4 -0.3 80 1.2 WSW 22 26 12 14 1021.1 1021.4 0.0
27/12:30am 2.8 -2.9 -0.6 78 1.3 WSW 19 20 10 11 1021.1 1021.4 0.0
27/12:00am 3.3 -2.4 -0.7 75 1.5 WSW 19 20 10 11 1021.2 1021.5 0.0
 
Date/Time
EST
Temp
°C
App
Temp
°C
Dew
Point
°C
Rel
Hum
%
Delta-T
°C
Wind Press
QNH
hPa
Press
MSL
hPa
Rain since
9am
mm
Dir  Spd
km/h
Gust
km/h
Spd
kts
Gust
kts
26/11:30pm 3.6 -2.3 -0.8 73 1.7 WSW 20 22 11 12 1021.2 1021.5 0.0
26/11:00pm 3.1 -2.3 -1.3 73 1.7 WSW 17 20 9 11 1021.2 1021.5 0.0
26/10:30pm 3.8 -1.6 -1.0 71 1.9 WSW 17 20 9 11 1021.0 1021.2 0.0
26/10:00pm 4.2 -1.8 -1.2 68 2.1 WSW 20 24 11 13 1020.8 1021.1 0.0
26/09:30pm 4.5 -0.9 -1.1 67 2.2 WSW 17 20 9 11 1020.7 1021.0 0.0
26/09:00pm 4.1 -1.3 -1.5 67 2.1 SW 17 17 9 9 1020.6 1020.9 0.0
26/08:30pm 4.7 -0.7 -1.3 65 2.3 WSW 17 19 9 10 1020.3 1020.6 0.0
26/08:00pm 5.1 -0.3 -1.3 63 2.5 WSW 17 19 9 10 1020.2 1020.5 0.0
26/07:30pm 5.3 0.7 -0.9 64 2.4 WSW 13 17 7 9 1020.2 1020.5 0.0
26/07:00pm 4.7 -0.2 -0.7 68 2.1 SW 15 19 8 10 1020.0 1020.2 0.0
26/06:30pm 5.5 -0.2 -0.8 64 2.5 SW 19 22 10 12 1019.5 1019.8 0.0
26/06:00pm 6.5 0.8 -0.7 60 2.9 WSW 19 22 10 12 1019.1 1019.4 0.0
26/05:30pm 7.2 2.3 -0.7 57 3.2 WSW 15 17 8 9 1018.7 1018.9 0.0
26/05:00pm 8.0 3.0 -1.0 53 3.6 WSW 15 19 8 10 1018.5 1018.7 0.0
26/04:30pm 9.3 3.9 -1.1 48 4.3 SW 17 20 9 11 1018.1 1018.4 0.0
26/04:00pm 9.6 5.2 -2.7 42 4.9 SSW 11 26 6 14 1017.8 1018.0 0.0
26/03:30pm 9.8 4.2 -2.5 42 4.9 SW 17 24 9 13 1017.6 1017.8 0.0
26/03:00pm 10.0 5.0 -1.1 46 4.6 SSW 15 24 8 13 1017.3 1017.5 0.0
26/02:30pm 9.7 3.8 -2.3 43 4.8 SSW 19 22 10 12 1017.2 1017.4 0.0
26/02:00pm 9.6 3.6 -1.7 45 4.6 WSW 20 26 11 14 1017.2 1017.4 0.0
26/01:30pm 9.0 3.7 -3.2 42 4.7 SW 15 22 8 12 1017.5 1017.7 0.0
26/01:00pm 9.0 3.6 -1.1 49 4.1 SSW 17 26 9 14 1017.6 1017.8 0.0
26/12:30pm 8.9 3.2 -0.4 52 3.9 SW 19 28 10 15 1017.9 1018.2 0.0
26/12:00pm 8.2 2.3 -1.1 52 3.8 SW 20 30 11 16 1018.1 1018.4 0.0
26/11:30am 8.0 1.8 -0.2 56 3.4 SSW 22 32 12 17 1018.5 1018.7 0.0
26/11:00am 7.2 0.7 0.0 60 3.0 SW 24 33 13 18 1018.6 1018.8 0.0
26/10:30am 6.2 -0.8 -0.5 62 2.7 SSW 26 35 14 19 1018.5 1018.7 0.0
26/10:00am 5.8 -1.2 -0.5 64 2.5 SSW 26 33 14 18 1018.4 1018.6 0.0
26/09:30am 4.8 -2.5 -0.2 70 2.0 SW 28 35 15 19 1018.4 1018.6 0.0
26/09:00am 3.7 -2.9 -0.3 75 1.6 SW 24 32 13 17 1018.4 1018.6 0.0
26/08:30am 2.9 -4.2 -0.9 76 1.5 WSW 26 33 14 18 1018.0 1018.3 0.0
26/08:00am 2.2 -4.9 -1.1 79 1.2 WSW 26 32 14 17 1017.7 1017.9 0.0
26/07:30am 1.3 -5.4 -1.4 82 1.0 SW 24 28 13 15 1017.5 1017.7 0.0
26/07:00am 0.6 -6.9 -1.3 87 0.7 SW 28 32 15 17 1016.9 1017.2 0.0
26/06:30am 0.4 -6.7 -1.2 89 0.6 SW 26 30 14 16 1016.6 1016.8 0.0
26/06:00am 0.6 -6.1 -0.8 90 0.5 SW 24 30 13 16 1016.4 1016.6 0.0
26/05:30am 0.9 -6.4 -0.2 92 0.4 SW 28 33 15 18 1015.8 1015.9 0.0
26/05:00am 0.9 -5.7 -0.1 93 0.4 SW 24 30 13 16 1015.5 1015.7 0.0
26/04:30am 1.0 -5.9 0.1 94 0.3 WSW 26 30 14 16 1015.2 1015.4 0.0
26/04:00am 1.0 -4.6 0.1 94 0.3 WSW 19 24 10 13 1015.0 1015.2 0.0
26/03:30am 2.1 -3.5 1.1 93 0.4 SW 20 24 11 13 1014.6 1014.7 0.0
26/03:00am 2.5 -1.7 1.8 95 0.3 SW 13 17 7 9 1014.7 1014.8 0.0
26/02:30am 2.6 -3.0 1.4 92 0.5 SW 20 24 11 13 1014.6 1014.7 0.0
26/02:00am 2.6 -3.0 1.1 90 0.6 SW 20 28 11 15 1014.7 1014.8 0.0
26/01:30am 2.2 -4.7 0.4 88 0.7 WSW 26 32 14 17 1014.6 1014.7 0.0
26/01:00am 2.7 -4.5 0.6 86 0.8 WSW 28 33 15 18 1014.5 1014.6 0.0
26/12:30am 2.6 -4.2 1.0 89 0.6 SW 26 32 14 17 1014.6 1014.7 0.0
26/12:00am 2.4 -3.7 0.6 88 0.7 SW 22 26 12 14 1014.6 1014.7 0.0
 
Date/Time
EST
Temp
°C
App
Temp
°C
Dew
Point
°C
Rel
Hum
%
Delta-T
°C
Wind Press
QNH
hPa
Press
MSL
hPa
Rain since
9am
mm
Dir  Spd
km/h
Gust
km/h
Spd
kts
Gust
kts
25/11:30pm 1.6 -4.0 0.0 89 0.6 SW 19 24 10 13 1014.6 1014.7 0.0
25/11:00pm 2.7 -4.5 0.4 85 0.9 WSW 28 33 15 18 1014.2 1014.4 0.0
25/10:30pm 2.9 -3.6 0.3 83 1.0 WSW 24 30 13 16 1014.2 1014.4 0.0
25/10:00pm 2.8 -4.1 0.2 83 1.0 WSW 26 33 14 18 1014.0 1014.2 0.0
25/09:30pm 2.8 -3.4 0.0 82 1.1 W 22 33 12 18 1014.1 1014.3 0.0
25/09:00pm 3.0 -3.1 0.1 81 1.1 W 22 30 12 16 1014.0 1014.2 0.0
25/08:30pm 3.5 -4.8 -0.1 77 1.4 W 33 43 18 23 1013.7 1013.9 0.0
25/08:00pm 3.7 -3.3 -0.3 75 1.6 W 26 33 14 18 1013.7 1013.9 0.0
25/07:30pm 4.4 -2.6 -0.6 70 2.0 W 26 39 14 21 1013.6 1013.7 0.0
25/07:00pm 5.1 -2.6 0.1 70 2.0 W 30 39 16 21 1013.3 1013.4 0.0
25/06:30pm 5.9 -2.1 0.3 67 2.3 W 32 41 17 22 1012.6 1012.8 0.0
25/06:24pm 6.1 -1.2 0.2 66 2.4 W 28 39 15 21 1012.5 1012.6 0.0
25/06:00pm 6.4 1.9 1.9 73 1.9 SW 15 22 8 12 1012.3 1012.4 0.0
25/05:30pm 7.3 2.4 2.2 70 2.2 W 17 24 9 13 1011.8 1011.9 0.0
25/05:00pm 7.2 1.7 1.7 68 2.4 W 20 28 11 15 1011.3 1011.4 0.0
25/04:30pm 8.5 2.6 1.4 61 3.1 WSW 22 30 12 16 1011.0 1011.1 0.0
25/04:00pm 8.5 2.7 2.1 64 2.8 WSW 22 30 12 16 1010.9 1011.0 0.0
25/03:30pm 7.3 1.7 1.0 64 2.7 WSW 20 28 11 15 1010.8 1010.9 0.0
25/03:00pm 7.9 1.2 1.3 63 2.8 WSW 26 37 14 20 1010.7 1010.8 0.0
25/02:30pm 7.9 -0.1 0.6 60 3.1 SW 32 41 17 22 1010.2 1010.3 0.0
25/02:00pm 8.0 0.9 1.6 64 2.8 WSW 28 35 15 19 1010.1 1010.2 0.0
25/01:30pm 9.2 1.9 2.3 62 3.1 WSW 30 41 16 22 1009.8 1009.9 0.0
25/01:00pm 9.0 0.4 2.6 64 2.9 WSW 37 48 20 26 1009.6 1009.7 0.0
25/12:30pm 8.7 0.4 2.3 64 2.8 WSW 35 46 19 25 1009.7 1009.8 0.0
25/12:00pm 8.1 -1.0 2.1 66 2.6 WSW 39 46 21 25 1010.0 1010.1 0.0
25/11:30am 7.5 0.7 3.2 74 1.9 WSW 28 39 15 21 1010.1 1010.2 0.0
25/11:00am 6.9 -0.2 3.3 78 1.6 WSW 30 39 16 21 1010.3 1010.4 0.0
25/10:30am 6.7 0.1 4.2 84 1.1 WSW 28 37 15 20 1010.3 1010.4 0.0
25/10:00am 5.0 -1.8 2.9 86 0.9 WSW 28 33 15 18 1010.5 1010.5 0.0
25/09:30am 4.8 -2.5 2.7 86 0.9 SW 30 41 16 22 1010.5 1010.5 0.0
25/09:00am 4.7 -2.8 3.2 90 0.7 SW 32 41 17 22 1010.3 1010.4 33.0
25/08:30am 4.0 -3.6 3.0 93 0.4 SW 32 37 17 20 1010.0 1010.1 33.0
25/08:00am 3.8 -3.9 3.2 96 0.3 WSW 33 39 18 21 1009.7 1009.8 33.0
25/07:30am 3.5 -3.7 2.9 96 0.3 SW 30 35 16 19 1009.3 1009.3 33.0
25/07:00am 3.2 -4.0 2.8 97 0.2 SW 30 33 16 18 1009.3 1009.3 33.0
25/06:30am 3.1 -4.5 2.8 98 0.1 SW 32 39 17 21 1008.8 1008.9 33.0
25/06:00am 2.9 -4.3 2.8 99 0.0 SW 30 33 16 18 1008.4 1008.5 33.0
25/05:30am 2.9 -4.0 2.6 98 0.1 SW 28 32 15 17 1007.9 1007.9 33.0
25/05:00am 3.0 -4.3 2.6 97 0.2 SW 30 35 16 19 1007.4 1007.5 33.0
25/04:30am 2.9 -4.4 2.6 98 0.1 SW 30 35 16 19 1007.2 1007.2 33.0
25/04:00am 3.0 -4.8 2.6 97 0.2 SW 33 43 18 23 1007.0 1007.0 33.0
25/03:30am 2.8 -4.8 2.7 99 0.0 SW 32 39 17 21 1007.2 1007.2 33.0
25/03:00am 2.7 -5.2 2.4 98 0.1 SSW 33 41 18 22 1007.4 1007.5 32.6
25/02:30am 2.7 -5.2 2.4 98 0.1 SW 33 43 18 23 1007.4 1007.5 32.0
25/02:00am 3.0 -4.6 2.7 98 0.1 SW 32 39 17 21 1007.6 1007.7 31.8
25/01:30am 3.0 -5.2 2.9 99 0.0 SW 35 44 19 24 1007.6 1007.7 31.6
25/01:00am 3.4 -4.3 3.4 100 0.0 SSW 33 43 18 23 1007.4 1007.5 31.4
25/12:30am 3.4 -4.3 3.4 100 0.0 SW 33 41 18 22 1007.6 1007.7 30.8
25/12:00am 3.5 -3.2 3.5 100 0.0 SW 28 33 15 18 1007.6 1007.7 29.8
 
Date/Time
EST
Temp
°C
App
Temp
°C
Dew
Point
°C
Rel
Hum
%
Delta-T
°C
Wind Press
QNH
hPa
Press
MSL
hPa
Rain since
9am
mm
Dir  Spd
km/h
Gust
km/h
Spd
kts
Gust
kts
24/11:30pm 3.4 -3.0 3.4 100 0.0 SW 26 32 14 17 1007.5 1007.6 29.0
24/11:00pm 3.5 -2.5 3.5 100 0.0 SSW 24 28 13 15 1007.6 1007.7 28.4
24/10:30pm 3.4 -3.7 3.3 99 0.0 SSW 30 39 16 21 1007.4 1007.5 27.8
24/10:00pm 3.2 -2.5 3.1 99 0.0 SSW 22 26 12 14 1007.9 1007.9 27.2
24/09:30pm 3.2 -4.0 2.9 98 0.1 SSW 30 39 16 21 1008.0 1008.0 26.4
24/09:00pm 3.1 -4.5 2.8 98 0.1 SSW 32 39 17 21 1008.5 1008.6 24.6
24/08:30pm 3.1 -5.1 2.7 97 0.2 SW 35 48 19 26 1008.6 1008.7 23.4
24/08:00pm 3.6 -4.1 3.2 97 0.2 SW 33 44 18 24 1008.5 1008.6 21.8
24/07:30pm 3.9 -3.8 3.6 98 0.1 SSW 33 44 18 24 1008.5 1008.6 20.2
24/07:00pm 4.3 -2.3 4.2 99 0.0 SSW 28 37 15 20 1008.5 1008.6 18.8
24/06:30pm 4.8 -1.7 4.7 99 0.0 SSW 28 37 15 20 1008.4 1008.5 16.8
24/06:00pm 4.9 -1.2 4.8 99 0.0 SW 26 32 14 17 1008.8 1008.9 14.8
24/05:30pm 5.4 -1.9 5.3 99 0.0 S 33 43 18 23 1007.5 1007.6 13.0
24/05:00pm 5.7 -1.6 5.6 99 0.0 S 33 41 18 22 1007.4 1007.5 11.4
24/04:30pm 6.0 -0.3 5.9 99 0.0 S 28 35 15 19 1007.3 1007.4 10.0
24/04:00pm 6.1 -0.1 6.0 99 0.0 S 28 35 15 19 1007.2 1007.2 8.4
24/03:30pm 6.3 -0.3 6.0 98 0.1 SSE 30 41 16 22 1006.9 1006.9 7.0
24/03:00pm 6.5 1.4 6.2 98 0.1 SSE 22 26 12 14 1007.4 1007.5 6.4

Other Formats:

Comma delimited format used in spreadsheet applications
http://www.bom.gov.au/fwo/IDN60801/IDN60801.99742.axf

JavaScript Object Notation format (JSON) in row-major order
http://www.bom.gov.au/fwo/IDN60801/IDN60801.99742.json